sensor_id;sensor_type;location;lat;lon;timestamp;temperature;humidity
55026;DHT22;40925;45.666;18.994;2023-06-26T00:50:10;538.50;2406.40
55026;DHT22;40925;45.666;18.994;2023-06-26T00:52:36;538.40;2406.40
55026;DHT22;40925;45.666;18.994;2023-06-26T00:55:03;538.30;2406.40
55026;DHT22;40925;45.666;18.994;2023-06-26T00:57:30;538.40;2406.40
55026;DHT22;40925;45.666;18.994;2023-06-26T00:59:56;538.20;2406.40
55026;DHT22;40925;45.666;18.994;2023-06-26T01:02:22;538.10;2406.40
55026;DHT22;40925;45.666;18.994;2023-06-26T01:04:52;538.40;2406.40
55026;DHT22;40925;45.666;18.994;2023-06-26T01:12:13;538.20;2406.40
55026;DHT22;40925;45.666;18.994;2023-06-26T01:14:39;537.70;2406.40
55026;DHT22;40925;45.666;18.994;2023-06-26T01:17:06;537.80;2406.40
55026;DHT22;40925;45.666;18.994;2023-06-26T01:19:33;537.70;2406.40
55026;DHT22;40925;45.666;18.994;2023-06-26T01:24:45;537.70;2329.60
55026;DHT22;40925;45.666;18.994;2023-06-26T01:27:14;537.60;2406.40
55026;DHT22;40925;45.666;18.994;2023-06-26T01:29:40;537.60;2406.40
55026;DHT22;40925;45.666;18.994;2023-06-26T01:32:07;512.90;2380.80
55026;DHT22;40925;45.666;18.994;2023-06-26T01:34:33;512.90;2380.80
55026;DHT22;40925;45.666;18.994;2023-06-26T01:37:00;512.90;2380.80
55026;DHT22;40925;45.666;18.994;2023-06-26T01:39:25;512.90;2380.80
55026;DHT22;40925;45.666;18.994;2023-06-26T01:41:51;512.80;2380.80
55026;DHT22;40925;45.666;18.994;2023-06-26T01:44:28;512.80;2380.80
55026;DHT22;40925;45.666;18.994;2023-06-26T01:47:05;512.80;2380.80
55026;DHT22;40925;45.666;18.994;2023-06-26T01:49:56;512.80;2380.80
55026;DHT22;40925;45.666;18.994;2023-06-26T01:52:33;512.80;2380.80
55026;DHT22;40925;45.666;18.994;2023-06-26T01:57:31;512.80;2380.80
55026;DHT22;40925;45.666;18.994;2023-06-26T01:59:58;512.70;2380.80
55026;DHT22;40925;45.666;18.994;2023-06-26T02:02:24;512.70;2380.80
55026;DHT22;40925;45.666;18.994;2023-06-26T02:04:51;512.70;2380.80
55026;DHT22;40925;45.666;18.994;2023-06-26T02:07:17;512.70;2380.80
55026;DHT22;40925;45.666;18.994;2023-06-26T02:09:42;512.70;2380.80
55026;DHT22;40925;45.666;18.994;2023-06-26T02:12:09;512.60;2380.80
55026;DHT22;40925;45.666;18.994;2023-06-26T02:14:35;512.60;2380.80
55026;DHT22;40925;45.666;18.994;2023-06-26T02:17:00;512.70;2380.80
55026;DHT22;40925;45.666;18.994;2023-06-26T02:19:26;512.50;2380.80
55026;DHT22;40925;45.666;18.994;2023-06-26T02:21:53;512.60;2380.80
55026;DHT22;40925;45.666;18.994;2023-06-26T02:24:19;512.50;2380.80
55026;DHT22;40925;45.666;18.994;2023-06-26T02:26:45;512.50;2380.80
55026;DHT22;40925;45.666;18.994;2023-06-26T02:29:12;512.50;2380.80
55026;DHT22;40925;45.666;18.994;2023-06-26T02:31:38;512.40;2380.80
55026;DHT22;40925;45.666;18.994;2023-06-26T02:34:04;512.40;2380.80
55026;DHT22;40925;45.666;18.994;2023-06-26T04:26:09;537.70;2406.40
55026;DHT22;40925;45.666;18.994;2023-06-26T04:28:38;512.80;2380.80
55026;DHT22;40925;45.666;18.994;2023-06-26T04:31:04;512.80;2380.80
55026;DHT22;40925;45.666;18.994;2023-06-26T04:33:30;512.80;2380.80
55026;DHT22;40925;45.666;18.994;2023-06-26T04:35:55;512.80;2380.80
55026;DHT22;40925;45.666;18.994;2023-06-26T04:38:21;512.90;2380.80
55026;DHT22;40925;45.666;18.994;2023-06-26T04:40:48;537.60;2406.40
55026;DHT22;40925;45.666;18.994;2023-06-26T04:43:14;537.60;2406.40
55026;DHT22;40925;45.666;18.994;2023-06-26T04:45:40;537.70;2406.40
55026;DHT22;40925;45.666;18.994;2023-06-26T04:48:06;537.80;2406.40
55026;DHT22;40925;45.666;18.994;2023-06-26T04:50:32;537.90;2406.40
55026;DHT22;40925;45.666;18.994;2023-06-26T04:52:59;537.90;2406.40
55026;DHT22;40925;45.666;18.994;2023-06-26T04:55:25;538.00;2406.40
55026;DHT22;40925;45.666;18.994;2023-06-26T04:57:51;538.10;2406.40
55026;DHT22;40925;45.666;18.994;2023-06-26T05:00:17;538.10;2406.40
55026;DHT22;40925;45.666;18.994;2023-06-26T05:02:43;538.20;2406.40
55026;DHT22;40925;45.666;18.994;2023-06-26T05:05:09;538.30;2406.40
55026;DHT22;40925;45.666;18.994;2023-06-26T05:07:36;538.40;2406.40
55026;DHT22;40925;45.666;18.994;2023-06-26T05:10:02;538.40;2406.40
55026;DHT22;40925;45.666;18.994;2023-06-26T05:12:28;538.40;2406.40
55026;DHT22;40925;45.666;18.994;2023-06-26T05:14:55;538.40;2406.40
55026;DHT22;40925;45.666;18.994;2023-06-26T05:17:21;538.50;2406.40
55026;DHT22;40925;45.666;18.994;2023-06-26T05:19:46;563.20;2432.00
55026;DHT22;40925;45.666;18.994;2023-06-26T05:22:13;563.20;2432.00
55026;DHT22;40925;45.666;18.994;2023-06-26T05:24:42;563.20;2432.00
55026;DHT22;40925;45.666;18.994;2023-06-26T05:27:12;563.40;2432.00
55026;DHT22;40925;45.666;18.994;2023-06-26T05:29:44;563.50;2432.00
55026;DHT22;40925;45.666;18.994;2023-06-26T05:32:38;563.60;2432.00
55026;DHT22;40925;45.666;18.994;2023-06-26T05:35:05;563.70;2432.00
55026;DHT22;40925;45.666;18.994;2023-06-26T05:37:34;563.70;2432.00
55026;DHT22;40925;45.666;18.994;2023-06-26T05:40:01;563.90;2432.00
55026;DHT22;40925;45.666;18.994;2023-06-26T05:42:29;588.80;2432.00
55026;DHT22;40925;45.666;18.994;2023-06-26T05:44:55;564.00;2432.00
55026;DHT22;40925;45.666;18.994;2023-06-26T05:47:21;564.10;2432.00
55026;DHT22;40925;45.666;18.994;2023-06-26T05:49:47;589.20;2432.00
55026;DHT22;40925;45.666;18.994;2023-06-26T05:52:13;589.30;2432.00
55026;DHT22;40925;45.666;18.994;2023-06-26T05:54:39;589.50;2432.00
55026;DHT22;40925;45.666;18.994;2023-06-26T05:57:06;589.40;2432.00
55026;DHT22;40925;45.666;18.994;2023-06-26T05:59:32;589.40;2432.00
55026;DHT22;40925;45.666;18.994;2023-06-26T06:01:58;589.50;2432.00
55026;DHT22;40925;45.666;18.994;2023-06-26T06:04:24;589.60;2432.00
55026;DHT22;40925;45.666;18.994;2023-06-26T06:06:50;589.50;2432.00
55026;DHT22;40925;45.666;18.994;2023-06-26T06:09:15;614.40;2432.00
55026;DHT22;40925;45.666;18.994;2023-06-26T06:11:42;614.40;2432.00
55026;DHT22;40925;45.666;18.994;2023-06-26T06:14:08;614.40;2432.00
55026;DHT22;40925;45.666;18.994;2023-06-26T06:16:33;614.60;2432.00
55026;DHT22;40925;45.666;18.994;2023-06-26T06:22:03;615.20;2432.00
55026;DHT22;40925;45.666;18.994;2023-06-26T06:24:29;614.80;2432.00
55026;DHT22;40925;45.666;18.994;2023-06-26T06:26:54;614.80;2432.00
55026;DHT22;40925;45.666;18.994;2023-06-26T06:29:20;615.00;2432.00
55026;DHT22;40925;45.666;18.994;2023-06-26T06:31:46;614.90;2432.00
55026;DHT22;40925;45.666;18.994;2023-06-26T06:34:12;614.80;2432.00
55026;DHT22;40925;45.666;18.994;2023-06-26T06:36:38;614.90;2432.00
55026;DHT22;40925;45.666;18.994;2023-06-26T06:39:04;615.00;2432.00
55026;DHT22;40925;45.666;18.994;2023-06-26T06:41:30;615.00;2432.00
55026;DHT22;40925;45.666;18.994;2023-06-26T06:43:55;615.10;2432.00
55026;DHT22;40925;45.666;18.994;2023-06-26T06:46:21;615.30;2432.00
55026;DHT22;40925;45.666;18.994;2023-06-26T06:48:47;640.00;2432.00
55026;DHT22;40925;45.666;18.994;2023-06-26T06:51:13;640.20;2432.00
55026;DHT22;40925;45.666;18.994;2023-06-26T06:53:38;640.40;2432.00
55026;DHT22;40925;45.666;18.994;2023-06-26T06:56:04;640.30;2432.00
55026;DHT22;40925;45.666;18.994;2023-06-26T06:58:30;640.40;2432.00
55026;DHT22;40925;45.666;18.994;2023-06-26T07:00:59;640.50;2432.00
55026;DHT22;40925;45.666;18.994;2023-06-26T07:03:25;640.70;2432.00
55026;DHT22;40925;45.666;18.994;2023-06-26T07:05:51;640.90;2432.00
55026;DHT22;40925;45.666;18.994;2023-06-26T07:08:16;640.90;2432.00
55026;DHT22;40925;45.666;18.994;2023-06-26T07:10:42;640.90;2432.00
55026;DHT22;40925;45.666;18.994;2023-06-26T07:13:08;665.70;2432.00
55026;DHT22;40925;45.666;18.994;2023-06-26T07:52:06;691.80;2355.20
55026;DHT22;40925;45.666;18.994;2023-06-26T07:54:32;691.70;2380.80
55026;DHT22;40925;45.666;18.994;2023-06-26T09:00:55;742.90;2022.40
55026;DHT22;40925;45.666;18.994;2023-06-26T09:10:42;768.00;1971.20
55026;DHT22;40925;45.666;18.994;2023-06-26T09:13:09;768.30;1868.80
55026;DHT22;40925;45.666;18.994;2023-06-26T09:27:54;793.60;1792.00
55026;DHT22;40925;45.666;18.994;2023-06-26T09:30:20;793.80;1766.40
55026;DHT22;40925;45.666;18.994;2023-06-26T09:33:16;793.60;1766.40
55026;DHT22;40925;45.666;18.994;2023-06-26T09:35:43;793.90;1740.80
55026;DHT22;40925;45.666;18.994;2023-06-26T09:38:10;794.10;1766.40
55026;DHT22;40925;45.666;18.994;2023-06-26T09:40:36;793.90;1766.40
55026;DHT22;40925;45.666;18.994;2023-06-26T09:43:08;768.90;1715.20
55026;DHT22;40925;45.666;18.994;2023-06-26T09:45:34;768.80;1612.80
55026;DHT22;40925;45.666;18.994;2023-06-26T09:48:05;768.90;1587.20
55026;DHT22;40925;45.666;18.994;2023-06-26T09:50:34;794.30;1664.00
55026;DHT22;40925;45.666;18.994;2023-06-26T09:53:10;794.10;1664.00
55026;DHT22;40925;45.666;18.994;2023-06-26T09:55:37;793.90;1664.00
55026;DHT22;40925;45.666;18.994;2023-06-26T09:58:03;793.80;1638.40
55026;DHT22;40925;45.666;18.994;2023-06-26T10:00:32;794.00;1612.80
55026;DHT22;40925;45.666;18.994;2023-06-26T10:03:07;794.40;1587.20
55026;DHT22;40925;45.666;18.994;2023-06-26T10:05:33;794.50;1561.60
55026;DHT22;40925;45.666;18.994;2023-06-26T10:08:01;794.30;1587.20
55026;DHT22;40925;45.666;18.994;2023-06-26T10:10:28;794.30;1587.20
55026;DHT22;40925;45.666;18.994;2023-06-26T10:12:58;794.50;1587.20
55026;DHT22;40925;45.666;18.994;2023-06-26T10:15:25;819.30;1561.60
55026;DHT22;40925;45.666;18.994;2023-06-26T10:17:55;819.70;1587.20
55026;DHT22;40925;45.666;18.994;2023-06-26T10:20:23;820.00;1561.60
55026;DHT22;40925;45.666;18.994;2023-06-26T10:22:50;820.10;1510.40
55026;DHT22;40925;45.666;18.994;2023-06-26T10:25:19;844.80;1459.20
55026;DHT22;40925;45.666;18.994;2023-06-26T10:27:51;844.90;1433.60
55026;DHT22;40925;45.666;18.994;2023-06-26T10:30:24;845.10;1408.00
55026;DHT22;40925;45.666;18.994;2023-06-26T10:32:53;845.10;1382.40
55026;DHT22;40925;45.666;18.994;2023-06-26T10:35:19;820.10;1356.80
55026;DHT22;40925;45.666;18.994;2023-06-26T10:37:49;820.10;1382.40
55026;DHT22;40925;45.666;18.994;2023-06-26T10:40:45;820.10;1408.00
55026;DHT22;40925;45.666;18.994;2023-06-26T10:43:12;844.80;1433.60
55026;DHT22;40925;45.666;18.994;2023-06-26T10:45:48;845.20;1433.60
55026;DHT22;40925;45.666;18.994;2023-06-26T10:48:22;845.30;1459.20
55026;DHT22;40925;45.666;18.994;2023-06-26T10:50:48;845.00;1433.60
55026;DHT22;40925;45.666;18.994;2023-06-26T11:03:37;820.00;1408.00
55026;DHT22;40925;45.666;18.994;2023-06-26T11:08:45;819.50;1459.20
55026;DHT22;40925;45.666;18.994;2023-06-26T11:11:12;844.80;1459.20
55026;DHT22;40925;45.666;18.994;2023-06-26T11:13:39;844.80;1433.60
55026;DHT22;40925;45.666;18.994;2023-06-26T11:16:05;845.30;1382.40
55026;DHT22;40925;45.666;18.994;2023-06-26T11:18:31;845.40;1356.80
55026;DHT22;40925;45.666;18.994;2023-06-26T11:21:07;845.40;1382.40
55026;DHT22;40925;45.666;18.994;2023-06-26T11:23:35;845.50;1331.20
55026;DHT22;40925;45.666;18.994;2023-06-26T11:26:18;845.60;1331.20
55026;DHT22;40925;45.666;18.994;2023-06-26T11:28:56;845.60;1356.80
55026;DHT22;40925;45.666;18.994;2023-06-26T11:31:31;870.60;1305.60
55026;DHT22;40925;45.666;18.994;2023-06-26T11:34:01;870.60;1280.00
55026;DHT22;40925;45.666;18.994;2023-06-26T11:36:29;870.60;1254.40
55026;DHT22;40925;45.666;18.994;2023-06-26T11:39:02;870.60;1203.20
55026;DHT22;40925;45.666;18.994;2023-06-26T11:41:29;870.80;1203.20
55026;DHT22;40925;45.666;18.994;2023-06-26T11:44:17;870.80;1254.40
55026;DHT22;40925;45.666;18.994;2023-06-26T11:46:45;870.70;1254.40
55026;DHT22;40925;45.666;18.994;2023-06-26T11:49:11;870.80;1228.80
55026;DHT22;40925;45.666;18.994;2023-06-26T11:51:37;870.80;1203.20
55026;DHT22;40925;45.666;18.994;2023-06-26T11:54:03;870.90;1177.60
55026;DHT22;40925;45.666;18.994;2023-06-26T11:56:30;871.00;1177.60
55026;DHT22;40925;45.666;18.994;2023-06-26T12:01:42;871.20;1152.00
55026;DHT22;40925;45.666;18.994;2023-06-26T12:04:13;871.20;1126.40
55026;DHT22;40925;45.666;18.994;2023-06-26T12:06:42;871.20;1100.80
55026;DHT22;40925;45.666;18.994;2023-06-26T12:09:11;871.10;1126.40
55026;DHT22;40925;45.666;18.994;2023-06-26T12:11:41;871.10;1126.40
55026;DHT22;40925;45.666;18.994;2023-06-26T12:14:07;870.90;1126.40
55026;DHT22;40925;45.666;18.994;2023-06-26T12:16:34;870.80;1100.80
55026;DHT22;40925;45.666;18.994;2023-06-26T12:19:05;870.60;1126.40
55026;DHT22;40925;45.666;18.994;2023-06-26T12:24:00;870.70;1152.00
55026;DHT22;40925;45.666;18.994;2023-06-26T12:26:27;871.00;1126.40
55026;DHT22;40925;45.666;18.994;2023-06-26T12:29:01;871.00;1100.80
55026;DHT22;40925;45.666;18.994;2023-06-26T12:31:27;871.00;1100.80
55026;DHT22;40925;45.666;18.994;2023-06-26T12:37:08;870.80;1152.00
55026;DHT22;40925;45.666;18.994;2023-06-26T12:39:51;871.00;1177.60
55026;DHT22;40925;45.666;18.994;2023-06-26T12:42:24;871.00;1126.40
55026;DHT22;40925;45.666;18.994;2023-06-26T12:44:51;871.00;1100.80
55026;DHT22;40925;45.666;18.994;2023-06-26T12:47:19;871.00;1152.00
55026;DHT22;40925;45.666;18.994;2023-06-26T12:49:49;871.20;1152.00
55026;DHT22;40925;45.666;18.994;2023-06-26T12:52:16;896.20;1152.00
55026;DHT22;40925;45.666;18.994;2023-06-26T12:54:45;896.40;1126.40
55026;DHT22;40925;45.666;18.994;2023-06-26T12:57:13;896.20;1126.40
55026;DHT22;40925;45.666;18.994;2023-06-26T12:59:40;896.20;1100.80
55026;DHT22;40925;45.666;18.994;2023-06-26T13:02:06;871.30;1100.80
55026;DHT22;40925;45.666;18.994;2023-06-26T13:05:04;896.20;1152.00
55026;DHT22;40925;45.666;18.994;2023-06-26T13:07:29;896.20;1126.40
55026;DHT22;40925;45.666;18.994;2023-06-26T13:09:55;896.10;1152.00
55026;DHT22;40925;45.666;18.994;2023-06-26T13:12:21;896.10;1152.00
55026;DHT22;40925;45.666;18.994;2023-06-26T13:14:47;896.20;1152.00
55026;DHT22;40925;45.666;18.994;2023-06-26T13:17:13;896.40;1126.40
55026;DHT22;40925;45.666;18.994;2023-06-26T13:19:39;896.20;1152.00
55026;DHT22;40925;45.666;18.994;2023-06-26T13:22:05;896.60;1126.40
55026;DHT22;40925;45.666;18.994;2023-06-26T13:24:30;871.20;1152.00
55026;DHT22;40925;45.666;18.994;2023-06-26T13:26:56;896.20;1152.00
55026;DHT22;40925;45.666;18.994;2023-06-26T13:29:22;871.20;1152.00
55026;DHT22;40925;45.666;18.994;2023-06-26T13:31:48;871.30;1152.00
55026;DHT22;40925;45.666;18.994;2023-06-26T13:34:21;871.00;1177.60
55026;DHT22;40925;45.666;18.994;2023-06-26T13:36:47;871.00;1152.00
55026;DHT22;40925;45.666;18.994;2023-06-26T13:39:13;871.10;1152.00
55026;DHT22;40925;45.666;18.994;2023-06-26T13:41:39;871.20;1152.00
55026;DHT22;40925;45.666;18.994;2023-06-26T13:44:04;896.20;1152.00
55026;DHT22;40925;45.666;18.994;2023-06-26T13:46:30;896.40;1152.00
55026;DHT22;40925;45.666;18.994;2023-06-26T13:48:56;896.60;1152.00
55026;DHT22;40925;45.666;18.994;2023-06-26T13:51:21;896.60;1152.00
55026;DHT22;40925;45.666;18.994;2023-06-26T13:53:47;896.50;1152.00
55026;DHT22;40925;45.666;18.994;2023-06-26T13:56:13;896.50;1152.00
55026;DHT22;40925;45.666;18.994;2023-06-26T13:58:42;896.50;1152.00
55026;DHT22;40925;45.666;18.994;2023-06-26T14:01:07;896.50;1152.00
55026;DHT22;40925;45.666;18.994;2023-06-26T14:03:33;896.30;1152.00
55026;DHT22;40925;45.666;18.994;2023-06-26T14:05:59;896.20;1177.60
55026;DHT22;40925;45.666;18.994;2023-06-26T14:08:25;896.20;1177.60
55026;DHT22;40925;45.666;18.994;2023-06-26T14:10:50;896.10;1152.00
55026;DHT22;40925;45.666;18.994;2023-06-26T14:13:16;896.20;1152.00
55026;DHT22;40925;45.666;18.994;2023-06-26T14:15:43;896.30;1152.00
55026;DHT22;40925;45.666;18.994;2023-06-26T14:18:09;896.40;1152.00
55026;DHT22;40925;45.666;18.994;2023-06-26T14:20:36;896.30;1126.40
55026;DHT22;40925;45.666;18.994;2023-06-26T14:23:02;896.30;1126.40
55026;DHT22;40925;45.666;18.994;2023-06-26T14:25:28;896.20;1100.80
55026;DHT22;40925;45.666;18.994;2023-06-26T14:27:55;896.30;1100.80
55026;DHT22;40925;45.666;18.994;2023-06-26T14:30:21;896.20;1126.40
55026;DHT22;40925;45.666;18.994;2023-06-26T14:32:47;896.30;1126.40
55026;DHT22;40925;45.666;18.994;2023-06-26T14:35:13;871.30;1152.00
55026;DHT22;40925;45.666;18.994;2023-06-26T14:37:38;871.20;1152.00
55026;DHT22;40925;45.666;18.994;2023-06-26T14:40:06;871.20;1177.60
55026;DHT22;40925;45.666;18.994;2023-06-26T14:42:33;871.10;1177.60
55026;DHT22;40925;45.666;18.994;2023-06-26T14:44:59;871.00;1152.00
55026;DHT22;40925;45.666;18.994;2023-06-26T14:47:24;871.10;1177.60
55026;DHT22;40925;45.666;18.994;2023-06-26T14:49:50;871.10;1152.00
55026;DHT22;40925;45.666;18.994;2023-06-26T14:52:16;871.00;1152.00
55026;DHT22;40925;45.666;18.994;2023-06-26T14:54:41;870.90;1152.00
55026;DHT22;40925;45.666;18.994;2023-06-26T14:57:07;871.00;1152.00
55026;DHT22;40925;45.666;18.994;2023-06-26T14:59:33;870.90;1152.00
55026;DHT22;40925;45.666;18.994;2023-06-26T15:01:59;871.00;1152.00
55026;DHT22;40925;45.666;18.994;2023-06-26T15:04:24;871.00;1152.00
55026;DHT22;40925;45.666;18.994;2023-06-26T15:06:50;871.00;1177.60
55026;DHT22;40925;45.666;18.994;2023-06-26T15:09:16;870.90;1177.60
55026;DHT22;40925;45.666;18.994;2023-06-26T15:11:42;870.90;1177.60
55026;DHT22;40925;45.666;18.994;2023-06-26T15:14:08;870.60;1177.60
55026;DHT22;40925;45.666;18.994;2023-06-26T15:16:34;870.70;1177.60
55026;DHT22;40925;45.666;18.994;2023-06-26T15:19:00;870.60;1203.20
55026;DHT22;40925;45.666;18.994;2023-06-26T15:21:26;870.50;1203.20
55026;DHT22;40925;45.666;18.994;2023-06-26T15:23:52;870.60;1203.20
55026;DHT22;40925;45.666;18.994;2023-06-26T15:26:18;870.50;1177.60
55026;DHT22;40925;45.666;18.994;2023-06-26T15:28:43;870.50;1203.20
55026;DHT22;40925;45.666;18.994;2023-06-26T15:31:09;870.70;1177.60
55026;DHT22;40925;45.666;18.994;2023-06-26T15:33:35;870.60;1177.60
55026;DHT22;40925;45.666;18.994;2023-06-26T15:36:00;870.40;1203.20
55026;DHT22;40925;45.666;18.994;2023-06-26T15:38:28;870.40;1177.60
55026;DHT22;40925;45.666;18.994;2023-06-26T15:40:54;870.40;1203.20
55026;DHT22;40925;45.666;18.994;2023-06-26T15:43:20;870.40;1203.20
55026;DHT22;40925;45.666;18.994;2023-06-26T15:45:45;870.40;1203.20
55026;DHT22;40925;45.666;18.994;2023-06-26T15:48:11;845.60;1203.20
55026;DHT22;40925;45.666;18.994;2023-06-26T15:50:37;870.40;1203.20
55026;DHT22;40925;45.666;18.994;2023-06-26T15:53:06;845.60;1228.80
55026;DHT22;40925;45.666;18.994;2023-06-26T15:55:32;870.40;1203.20
55026;DHT22;40925;45.666;18.994;2023-06-26T15:57:57;870.40;1228.80
55026;DHT22;40925;45.666;18.994;2023-06-26T16:00:25;845.60;1203.20
55026;DHT22;40925;45.666;18.994;2023-06-26T16:02:51;845.60;1228.80
55026;DHT22;40925;45.666;18.994;2023-06-26T16:05:16;845.40;1254.40
55026;DHT22;40925;45.666;18.994;2023-06-26T16:07:42;845.50;1228.80
55026;DHT22;40925;45.666;18.994;2023-06-26T16:10:08;845.50;1254.40
55026;DHT22;40925;45.666;18.994;2023-06-26T16:12:34;845.40;1228.80
55026;DHT22;40925;45.666;18.994;2023-06-26T16:15:00;845.30;1254.40
55026;DHT22;40925;45.666;18.994;2023-06-26T16:17:25;845.30;1254.40
55026;DHT22;40925;45.666;18.994;2023-06-26T16:19:51;845.20;1228.80
55026;DHT22;40925;45.666;18.994;2023-06-26T16:22:17;845.00;1254.40
55026;DHT22;40925;45.666;18.994;2023-06-26T16:24:43;820.00;1254.40
55026;DHT22;40925;45.666;18.994;2023-06-26T16:27:08;819.90;1280.00
55026;DHT22;40925;45.666;18.994;2023-06-26T16:29:36;820.00;1280.00
55026;DHT22;40925;45.666;18.994;2023-06-26T16:32:01;820.00;1280.00
55026;DHT22;40925;45.666;18.994;2023-06-26T16:34:27;844.80;1280.00
55026;DHT22;40925;45.666;18.994;2023-06-26T16:36:53;820.10;1254.40
55026;DHT22;40925;45.666;18.994;2023-06-26T16:39:19;820.10;1280.00
55026;DHT22;40925;45.666;18.994;2023-06-26T16:41:50;820.00;1280.00
55026;DHT22;40925;45.666;18.994;2023-06-26T16:44:22;819.90;1280.00
55026;DHT22;40925;45.666;18.994;2023-06-26T16:46:48;819.80;1280.00
55026;DHT22;40925;45.666;18.994;2023-06-26T16:49:14;819.70;1280.00
55026;DHT22;40925;45.666;18.994;2023-06-26T16:51:41;819.80;1280.00
55026;DHT22;40925;45.666;18.994;2023-06-26T16:54:07;819.70;1356.80
55026;DHT22;40925;45.666;18.994;2023-06-26T16:56:32;819.70;1331.20
55026;DHT22;40925;45.666;18.994;2023-06-26T16:58:58;819.30;1356.80
55026;DHT22;40925;45.666;18.994;2023-06-26T17:01:24;819.40;1331.20
55026;DHT22;40925;45.666;18.994;2023-06-26T17:03:50;819.30;1331.20
55026;DHT22;40925;45.666;18.994;2023-06-26T17:06:17;794.50;1382.40
55026;DHT22;40925;45.666;18.994;2023-06-26T17:08:42;794.30;1356.80
55026;DHT22;40925;45.666;18.994;2023-06-26T17:11:08;794.10;1382.40
55026;DHT22;40925;45.666;18.994;2023-06-26T17:13:34;794.10;1382.40
55026;DHT22;40925;45.666;18.994;2023-06-26T17:16:00;794.10;1382.40
55026;DHT22;40925;45.666;18.994;2023-06-26T17:18:26;793.90;1408.00
55026;DHT22;40925;45.666;18.994;2023-06-26T17:21:10;793.90;1408.00
55026;DHT22;40925;45.666;18.994;2023-06-26T17:23:39;793.90;1408.00
55026;DHT22;40925;45.666;18.994;2023-06-26T17:26:04;793.80;1408.00
55026;DHT22;40925;45.666;18.994;2023-06-26T17:28:31;793.60;1433.60
55026;DHT22;40925;45.666;18.994;2023-06-26T17:30:57;793.60;1433.60
55026;DHT22;40925;45.666;18.994;2023-06-26T17:33:22;793.60;1459.20
55026;DHT22;40925;45.666;18.994;2023-06-26T17:35:48;768.80;1433.60
55026;DHT22;40925;45.666;18.994;2023-06-26T17:38:13;768.90;1433.60
55026;DHT22;40925;45.666;18.994;2023-06-26T17:40:40;768.80;1459.20
55026;DHT22;40925;45.666;18.994;2023-06-26T17:43:06;768.60;1459.20
55026;DHT22;40925;45.666;18.994;2023-06-26T17:45:32;768.60;1484.80
55026;DHT22;40925;45.666;18.994;2023-06-26T17:47:59;768.50;1484.80
55026;DHT22;40925;45.666;18.994;2023-06-26T17:50:26;768.40;1510.40
55026;DHT22;40925;45.666;18.994;2023-06-26T17:52:52;768.40;1510.40
55026;DHT22;40925;45.666;18.994;2023-06-26T17:55:18;768.10;1510.40
55026;DHT22;40925;45.666;18.994;2023-06-26T17:57:44;768.10;1536.00
55026;DHT22;40925;45.666;18.994;2023-06-26T18:00:10;768.20;1536.00
55026;DHT22;40925;45.666;18.994;2023-06-26T18:02:37;768.00;1561.60
55026;DHT22;40925;45.666;18.994;2023-06-26T18:05:06;768.00;1561.60
55026;DHT22;40925;45.666;18.994;2023-06-26T18:07:31;743.20;1536.00
55026;DHT22;40925;45.666;18.994;2023-06-26T18:09:57;743.10;1561.60
55026;DHT22;40925;45.666;18.994;2023-06-26T18:12:23;743.10;1561.60
55026;DHT22;40925;45.666;18.994;2023-06-26T18:14:49;743.00;1587.20
55026;DHT22;40925;45.666;18.994;2023-06-26T18:19:41;742.80;1612.80
55026;DHT22;40925;45.666;18.994;2023-06-26T18:22:07;742.90;1612.80
55026;DHT22;40925;45.666;18.994;2023-06-26T18:26:59;742.90;1612.80
55026;DHT22;40925;45.666;18.994;2023-06-26T18:29:25;742.70;1638.40
55026;DHT22;40925;45.666;18.994;2023-06-26T19:06:24;717.10;1689.60
55026;DHT22;40925;45.666;18.994;2023-06-26T19:08:50;717.00;1715.20
55026;DHT22;40925;45.666;18.994;2023-06-26T19:11:16;716.90;1715.20
55026;DHT22;40925;45.666;18.994;2023-06-26T19:43:00;692.00;1766.40
55026;DHT22;40925;45.666;18.994;2023-06-26T19:45:26;691.70;1792.00
55026;DHT22;40925;45.666;18.994;2023-06-26T19:47:52;691.50;1868.80
55026;DHT22;40925;45.666;18.994;2023-06-26T19:52:44;691.30;2022.40
55026;DHT22;40925;45.666;18.994;2023-06-26T19:55:09;691.20;2022.40
55026;DHT22;40925;45.666;18.994;2023-06-26T19:57:36;666.20;2099.20
55026;DHT22;40925;45.666;18.994;2023-06-26T20:00:02;666.20;2124.80
55026;DHT22;40925;45.666;18.994;2023-06-26T20:02:30;666.10;2176.00
55026;DHT22;40925;45.666;18.994;2023-06-26T20:04:56;666.10;2227.20
55026;DHT22;40925;45.666;18.994;2023-06-26T20:07:21;666.00;2278.40
55026;DHT22;40925;45.666;18.994;2023-06-26T20:09:47;665.90;2355.20
55026;DHT22;40925;45.666;18.994;2023-06-26T20:12:13;665.80;2406.40
55026;DHT22;40925;45.666;18.994;2023-06-26T20:14:39;665.70;2432.00
55026;DHT22;40925;45.666;18.994;2023-06-26T20:17:05;665.70;2432.00
55026;DHT22;40925;45.666;18.994;2023-06-26T20:19:31;665.60;2432.00
55026;DHT22;40925;45.666;18.994;2023-06-26T20:21:57;665.60;2432.00
55026;DHT22;40925;45.666;18.994;2023-06-26T20:24:23;640.90;2432.00
55026;DHT22;40925;45.666;18.994;2023-06-26T20:26:49;640.80;2432.00
55026;DHT22;40925;45.666;18.994;2023-06-26T20:29:15;640.80;2432.00
55026;DHT22;40925;45.666;18.994;2023-06-26T20:31:40;640.80;2432.00
55026;DHT22;40925;45.666;18.994;2023-06-26T20:34:06;640.70;2432.00
55026;DHT22;40925;45.666;18.994;2023-06-26T20:37:09;640.50;2432.00
55026;DHT22;40925;45.666;18.994;2023-06-26T20:39:35;640.50;2432.00
55026;DHT22;40925;45.666;18.994;2023-06-26T20:42:01;640.40;2432.00
55026;DHT22;40925;45.666;18.994;2023-06-26T20:44:29;640.40;2432.00
55026;DHT22;40925;45.666;18.994;2023-06-26T20:46:55;640.30;2432.00
55026;DHT22;40925;45.666;18.994;2023-06-26T20:49:24;640.20;2432.00
55026;DHT22;40925;45.666;18.994;2023-06-26T20:51:51;640.10;2432.00
55026;DHT22;40925;45.666;18.994;2023-06-26T20:54:17;640.30;2432.00
55026;DHT22;40925;45.666;18.994;2023-06-26T20:56:43;640.00;2432.00
55026;DHT22;40925;45.666;18.994;2023-06-26T20:59:09;640.10;2432.00
55026;DHT22;40925;45.666;18.994;2023-06-26T21:01:35;640.00;2432.00